Time;durP1;ratioP1;P1;durP2;ratioP2;P2;SDS_P1;SDS_P2;PMS_P1;PMS_P2;Temp;Humidity;BMP_temperature;BMP_pressure;BME280_temperature;BME280_humidity;BME280_pressure;Samples;Min_cycle;Max_cycle;Signal;HPM_P1;HPM_P2
2022/05/03 00:00:04;;;;;;;;;;;15.10;69.50;;;;;;6128091;23;20330;-78
2022/05/03 00:02:54;;;;;;;;;;;15.10;69.10;;;;;;6153056;23;19948;-80
2022/05/03 00:05:24;;;;;;;;;;;15.20;68.50;;;;;;6135524;23;19996;-80
2022/05/03 00:08:06;;;;;;;;;;;15.20;67.60;;;;;;6123196;23;19964;-79
2022/05/03 00:10:39;;;;;;;;;;;15.20;67.50;;;;;;6176832;23;20356;-80
2022/05/03 00:13:07;;;;;;;;;;;15.20;67.10;;;;;;6152769;23;19925;-79
2022/05/03 00:15:39;;;;;;;;;;;15.20;67.40;;;;;;6146955;23;19925;-77
2022/05/03 00:18:06;;;;;;;;;;;15.20;67.90;;;;;;6123955;23;20358;-78
2022/05/03 00:20:33;;;;;;;;;;;15.20;68.00;;;;;;6152618;23;19920;-77
2022/05/03 00:23:00;;;;;;;;;;;15.20;67.70;;;;;;6152656;23;19995;-78
2022/05/03 00:25:27;;;;;;;;;;;15.20;69.70;;;;;;6153212;23;19972;-79
2022/05/03 00:27:54;;;;;;;;;;;15.00;72.90;;;;;;6152452;23;19928;-79
2022/05/03 00:30:21;;;;;;;;;;;14.90;73.30;;;;;;6126963;23;19971;-78
2022/05/03 00:32:48;;;;;;;;;;;14.80;72.90;;;;;;6152654;23;19920;-78
2022/05/03 00:35:21;;;;;;;;;;;14.80;73.30;;;;;;6128869;23;20397;-79
2022/05/03 00:37:48;;;;;;;;;;;14.90;73.40;;;;;;6154624;23;20408;-79
2022/05/03 00:40:17;;;;;;;;;;;14.80;74.40;;;;;;6128339;23;19925;-77
2022/05/03 00:42:46;;;;;;;;;;;14.80;72.20;;;;;;6151684;23;20341;-80
2022/05/03 00:45:15;;;;;;;;;;;14.90;71.10;;;;;;6128764;23;19921;-79
2022/05/03 00:47:42;;;;;;;;;;;14.90;71.20;;;;;;6152699;23;19921;-77
2022/05/03 00:50:11;;;;;;;;;;;14.90;73.80;;;;;;6128279;23;20402;-76
2022/05/03 00:52:45;;;;;;;;;;;14.80;75.60;;;;;;6175858;23;20338;-79
2022/05/03 00:55:30;;;;;;;;;;;14.80;74.70;;;;;;6152521;23;19951;-78
2022/05/03 00:58:16;;;;;;;;;;;14.80;75.30;;;;;;6158776;23;19921;-78
2022/05/03 01:00:52;;;;;;;;;;;14.80;74.90;;;;;;6125107;23;19921;-77
2022/05/03 01:03:27;;;;;;;;;;;14.80;72.80;;;;;;6176807;23;19920;-78
2022/05/03 01:06:16;;;;;;;;;;;14.80;71.20;;;;;;6153517;23;19932;-78
2022/05/03 01:08:55;;;;;;;;;;;14.80;70.60;;;;;;6153276;23;19921;-78
2022/05/03 01:11:37;;;;;;;;;;;14.90;70.30;;;;;;6129247;23;19921;-80
2022/05/03 01:14:12;;;;;;;;;;;14.90;71.30;;;;;;6152783;23;19921;-77
2022/05/03 01:17:05;;;;;;;;;;;14.90;71.70;;;;;;6151766;23;19972;-77
2022/05/03 01:19:49;;;;;;;;;;;14.90;71.70;;;;;;6118603;23;19924;-77
2022/05/03 01:22:36;;;;;;;;;;;14.80;73.40;;;;;;6126734;23;19952;-78
2022/05/03 01:25:23;;;;;;;;;;;14.80;73.30;;;;;;6151880;23;20401;-79
2022/05/03 01:28:10;;;;;;;;;;;14.80;74.50;;;;;;6146419;23;19980;-79
2022/05/03 01:30:37;;;;;;;;;;;14.80;73.70;;;;;;6146531;23;19921;-79
2022/05/03 01:33:08;;;;;;;;;;;14.70;75.20;;;;;;6146770;23;19992;-78
2022/05/03 01:35:38;;;;;;;;;;;14.70;74.30;;;;;;6132255;23;19932;-79
2022/05/03 01:38:28;;;;;;;;;;;14.80;74.10;;;;;;6168065;23;19968;-77
2022/05/03 01:40:55;;;;;;;;;;;14.80;73.90;;;;;;6163725;23;20289;-77
2022/05/03 01:43:40;;;;;;;;;;;14.80;76.10;;;;;;6153062;23;19975;-79
2022/05/03 01:46:15;;;;;;;;;;;14.70;75.30;;;;;;6134709;23;19921;-78
2022/05/03 01:52:01;;;;;;;;;;;14.80;74.70;;;;;;6125462;23;20297;-78
2022/05/03 01:54:28;;;;;;;;;;;14.70;75.60;;;;;;6143806;23;19928;-77
2022/05/03 01:56:57;;;;;;;;;;;14.60;75.50;;;;;;6149249;23;19959;-77
2022/05/03 01:59:41;;;;;;;;;;;14.70;74.30;;;;;;6172838;23;19998;-78
2022/05/03 02:02:36;;;;;;;;;;;14.70;71.90;;;;;;6153096;23;19924;-76
2022/05/03 02:05:06;;;;;;;;;;;14.80;70.30;;;;;;6141378;23;19944;-80
2022/05/03 02:07:42;;;;;;;;;;;14.90;69.30;;;;;;6155338;23;19971;-77
2022/05/03 02:10:18;;;;;;;;;;;14.90;69.60;;;;;;6137213;23;19925;-79
2022/05/03 02:12:49;;;;;;;;;;;15.00;69.70;;;;;;6178226;23;20396;-79
2022/05/03 02:15:20;;;;;;;;;;;14.90;70.60;;;;;;6126302;23;19961;-78
2022/05/03 02:17:51;;;;;;;;;;;14.90;71.40;;;;;;6124374;23;19921;-78
2022/05/03 02:20:36;;;;;;;;;;;14.90;71.20;;;;;;6126283;23;20367;-79
2022/05/03 02:23:05;;;;;;;;;;;14.90;71.20;;;;;;6148824;23;19924;-80
2022/05/03 02:25:32;;;;;;;;;;;14.90;72.00;;;;;;6149867;23;19921;-77
2022/05/03 02:28:17;;;;;;;;;;;14.80;72.70;;;;;;6148289;23;19921;-77
2022/05/03 02:30:45;;;;;;;;;;;14.80;73.50;;;;;;6149591;23;19929;-80
2022/05/03 02:33:50;;;;;;;;;;;14.70;74.60;;;;;;6178224;23;19921;-78
2022/05/03 02:36:22;;;;;;;;;;;14.60;75.20;;;;;;6093740;23;19925;-77
2022/05/03 02:38:49;;;;;;;;;;;14.50;76.30;;;;;;6069783;23;19921;-77
2022/05/03 02:41:17;;;;;;;;;;;14.50;77.00;;;;;;6134347;23;19975;-79
2022/05/03 02:43:45;;;;;;;;;;;14.40;77.50;;;;;;6131584;23;19925;-79
2022/05/03 02:46:30;;;;;;;;;;;14.40;77.00;;;;;;6126771;23;20397;-77
2022/05/03 02:49:02;;;;;;;;;;;14.40;76.80;;;;;;6152862;23;19927;-77
2022/05/03 02:51:46;;;;;;;;;;;14.30;76.50;;;;;;6134323;23;20389;-77
2022/05/03 02:54:45;;;;;;;;;;;14.30;76.60;;;;;;6128031;23;19968;-78
2022/05/03 02:57:26;;;;;;;;;;;14.30;76.70;;;;;;6129189;23;19944;-78
2022/05/03 03:03:04;;;;;;;;;;;14.30;77.80;;;;;;6154137;23;19971;-78
2022/05/03 03:05:34;;;;;;;;;;;14.30;77.20;;;;;;6128334;23;20258;-78
2022/05/03 03:08:02;;;;;;;;;;;14.30;78.60;;;;;;6153423;23;19920;-79
2022/05/03 03:10:33;;;;;;;;;;;14.20;77.60;;;;;;6128250;23;19925;-79
2022/05/03 03:13:03;;;;;;;;;;;14.20;78.90;;;;;;6153632;23;19975;-77
2022/05/03 03:15:33;;;;;;;;;;;14.20;78.50;;;;;;6127982;23;20270;-79
2022/05/03 03:18:01;;;;;;;;;;;14.20;78.80;;;;;;6153817;23;19989;-79
2022/05/03 03:20:28;;;;;;;;;;;14.10;78.70;;;;;;6128617;23;19929;-78
2022/05/03 03:22:55;;;;;;;;;;;14.10;78.40;;;;;;6152788;23;20266;-78
2022/05/03 03:25:23;;;;;;;;;;;14.10;78.60;;;;;;6128502;23;20406;-77
2022/05/03 03:27:51;;;;;;;;;;;14.10;78.90;;;;;;6129209;23;19990;-77
2022/05/03 03:30:20;;;;;;;;;;;14.00;80.00;;;;;;6177506;23;19924;-77
2022/05/03 03:32:48;;;;;;;;;;;13.90;80.90;;;;;;6153546;23;19996;-78
2022/05/03 03:35:16;;;;;;;;;;;13.80;81.90;;;;;;6152357;23;19968;-77
2022/05/03 03:37:45;;;;;;;;;;;13.80;81.20;;;;;;6127648;23;19980;-78
2022/05/03 03:40:13;;;;;;;;;;;13.80;81.50;;;;;;6153205;23;19968;-78
2022/05/03 03:42:44;;;;;;;;;;;13.80;81.80;;;;;;6128620;23;19932;-79
2022/05/03 03:45:11;;;;;;;;;;;13.80;80.40;;;;;;6153515;23;19920;-79
2022/05/03 03:47:39;;;;;;;;;;;13.80;80.90;;;;;;6127446;23;20293;-78
2022/05/03 03:50:06;;;;;;;;;;;13.80;80.30;;;;;;6177705;23;19955;-78
2022/05/03 03:52:34;;;;;;;;;;;13.80;81.20;;;;;;6127217;23;19925;-77
2022/05/03 03:55:04;;;;;;;;;;;13.80;80.40;;;;;;6153942;23;20412;-79
2022/05/03 03:57:34;;;;;;;;;;;13.80;80.80;;;;;;6127449;23;19925;-78
2022/05/03 04:00:03;;;;;;;;;;;13.80;80.20;;;;;;6152628;23;19920;-78
2022/05/03 04:02:30;;;;;;;;;;;13.80;80.20;;;;;;6127579;23;19924;-80
2022/05/03 04:04:57;;;;;;;;;;;13.80;80.70;;;;;;6154916;23;19925;-77
2022/05/03 04:07:24;;;;;;;;;;;13.80;79.90;;;;;;6152529;23;19936;-80
2022/05/03 04:09:51;;;;;;;;;;;13.70;80.80;;;;;;6127643;23;19920;-79
2022/05/03 04:12:19;;;;;;;;;;;13.70;79.80;;;;;;6152673;23;19921;-77
2022/05/03 04:14:46;;;;;;;;;;;13.70;79.60;;;;;;6127030;23;19921;-77
2022/05/03 04:17:13;;;;;;;;;;;13.70;78.90;;;;;;6177493;23;19921;-79
2022/05/03 04:19:40;;;;;;;;;;;13.70;79.10;;;;;;6127331;23;20313;-79
2022/05/03 04:22:26;;;;;;;;;;;13.70;79.40;;;;;;6153939;23;19938;-77
2022/05/03 04:24:54;;;;;;;;;;;13.70;79.90;;;;;;6153644;23;19929;-79
2022/05/03 04:27:21;;;;;;;;;;;13.70;79.80;;;;;;6152769;23;20346;-79
2022/05/03 04:29:48;;;;;;;;;;;13.70;80.20;;;;;;6126708;23;19972;-78
2022/05/03 04:32:15;;;;;;;;;;;13.60;80.80;;;;;;6152601;23;20269;-78
2022/05/03 04:34:42;;;;;;;;;;;13.60;80.80;;;;;;6127304;23;19936;-79
2022/05/03 04:37:09;;;;;;;;;;;13.60;80.80;;;;;;6154252;23;19968;-79
2022/05/03 04:39:36;;;;;;;;;;;13.60;80.40;;;;;;6126841;23;20297;-77
2022/05/03 04:42:03;;;;;;;;;;;13.60;80.20;;;;;;6176896;23;19987;-79
2022/05/03 04:44:29;;;;;;;;;;;13.60;79.90;;;;;;6127870;23;19925;-78
2022/05/03 04:46:56;;;;;;;;;;;13.60;80.30;;;;;;6154093;23;19920;-79
2022/05/03 04:49:23;;;;;;;;;;;13.60;79.80;;;;;;6129288;23;19924;-77
2022/05/03 04:51:50;;;;;;;;;;;13.60;80.60;;;;;;6150632;23;19979;-78
2022/05/03 04:54:17;;;;;;;;;;;13.60;80.60;;;;;;6177493;23;19920;-79
2022/05/03 04:56:46;;;;;;;;;;;13.70;80.10;;;;;;6126194;23;19925;-79
2022/05/03 04:59:12;;;;;;;;;;;13.70;79.70;;;;;;6176204;23;19921;-77
2022/05/03 05:01:39;;;;;;;;;;;13.70;80.00;;;;;;6151668;23;19928;-79
2022/05/03 05:04:06;;;;;;;;;;;13.80;79.50;;;;;;6152213;23;20000;-79
2022/05/03 05:06:32;;;;;;;;;;;13.80;79.50;;;;;;6129635;23;20394;-77
2022/05/03 05:08:59;;;;;;;;;;;13.80;79.80;;;;;;6152348;23;20420;-78
2022/05/03 05:11:26;;;;;;;;;;;13.80;80.40;;;;;;6152538;23;19975;-80
2022/05/03 05:13:53;;;;;;;;;;;13.90;80.10;;;;;;6126956;23;19921;-79
2022/05/03 05:16:19;;;;;;;;;;;13.90;78.60;;;;;;6152995;23;19920;-77
2022/05/03 05:18:46;;;;;;;;;;;13.90;77.80;;;;;;6126605;23;19928;-78
2022/05/03 05:21:13;;;;;;;;;;;14.00;77.80;;;;;;6177207;23;19927;-78
2022/05/03 05:23:40;;;;;;;;;;;14.00;77.00;;;;;;6153359;23;19975;-80
2022/05/03 05:26:07;;;;;;;;;;;14.00;77.00;;;;;;6154419;23;19975;-80
2022/05/03 05:28:33;;;;;;;;;;;14.10;76.60;;;;;;6131085;23;19921;-78
2022/05/03 05:31:00;;;;;;;;;;;14.10;76.70;;;;;;6151942;23;19925;-78
2022/05/03 05:33:27;;;;;;;;;;;14.00;80.80;;;;;;6153160;23;19921;-79
2022/05/03 05:35:54;;;;;;;;;;;14.00;82.00;;;;;;6129085;23;19924;-78
2022/05/03 05:38:21;;;;;;;;;;;13.90;80.90;;;;;;6154210;23;19921;-79
2022/05/03 05:40:48;;;;;;;;;;;14.00;78.70;;;;;;6154004;23;19925;-78
2022/05/03 05:43:15;;;;;;;;;;;14.10;78.90;;;;;;6154166;23;19925;-78
2022/05/03 05:45:42;;;;;;;;;;;14.10;80.20;;;;;;6129179;23;19971;-80
2022/05/03 05:48:09;;;;;;;;;;;14.10;80.40;;;;;;6154113;23;19921;-79
2022/05/03 05:50:36;;;;;;;;;;;14.10;80.40;;;;;;6129817;23;19924;-77
2022/05/03 05:55:48;;;;;;;;;;;14.20;80.80;;;;;;6154936;23;20333;-78
2022/05/03 05:58:15;;;;;;;;;;;14.30;80.00;;;;;;6155541;23;19971;-78
2022/05/03 06:00:42;;;;;;;;;;;14.40;79.50;;;;;;6129278;23;19925;-77
2022/05/03 06:03:09;;;;;;;;;;;14.40;79.70;;;;;;6154926;23;20309;-79
2022/05/03 06:05:37;;;;;;;;;;;14.50;80.60;;;;;;6130666;23;19980;-78
2022/05/03 06:08:04;;;;;;;;;;;14.40;80.20;;;;;;6173407;23;19996;-78
2022/05/03 06:10:31;;;;;;;;;;;14.50;79.60;;;;;;6149016;23;20335;-80
2022/05/03 06:13:01;;;;;;;;;;;14.60;79.80;;;;;;6148977;23;19928;-78
2022/05/03 06:15:28;;;;;;;;;;;14.70;80.30;;;;;;6126091;23;19921;-80
2022/05/03 06:17:55;;;;;;;;;;;14.90;80.50;;;;;;6146293;23;19925;-79
2022/05/03 06:20:22;;;;;;;;;;;15.00;79.60;;;;;;6169740;23;19928;-78
2022/05/03 06:22:49;;;;;;;;;;;15.10;79.70;;;;;;6177173;23;19968;-79
2022/05/03 06:25:16;;;;;;;;;;;15.20;78.40;;;;;;6134467;23;19925;-78
2022/05/03 06:27:43;;;;;;;;;;;15.30;76.20;;;;;;6177626;23;20404;-79
2022/05/03 06:30:10;;;;;;;;;;;15.50;74.20;;;;;;6148868;23;20255;-79
2022/05/03 06:32:37;;;;;;;;;;;15.50;72.20;;;;;;6126136;23;19920;-78
2022/05/03 06:35:04;;;;;;;;;;;15.60;72.40;;;;;;6146874;23;19956;-78
2022/05/03 06:37:37;;;;;;;;;;;15.70;71.10;;;;;;6141659;23;20383;-77
2022/05/03 06:40:08;;;;;;;;;;;15.80;70.60;;;;;;6125144;23;19972;-80
2022/05/03 06:42:36;;;;;;;;;;;15.80;70.60;;;;;;6171900;23;20261;-78
2022/05/03 06:45:03;;;;;;;;;;;15.80;69.90;;;;;;6153728;23;20409;-79
2022/05/03 06:47:30;;;;;;;;;;;15.80;70.70;;;;;;6131701;23;19932;-78
2022/05/03 06:49:57;;;;;;;;;;;15.90;70.10;;;;;;6152511;23;19924;-79
2022/05/03 06:52:25;;;;;;;;;;;16.00;70.50;;;;;;6152905;23;19921;-79
2022/05/03 06:54:53;;;;;;;;;;;16.00;70.60;;;;;;6128351;23;19921;-78
2022/05/03 06:57:20;;;;;;;;;;;16.10;68.70;;;;;;6153940;23;20353;-79
2022/05/03 06:59:46;;;;;;;;;;;16.20;68.30;;;;;;6152728;23;19976;-78
2022/05/03 07:02:13;;;;;;;;;;;16.20;67.50;;;;;;6155512;23;19996;-79
2022/05/03 07:04:43;;;;;;;;;;;16.30;67.40;;;;;;6130101;23;20259;-79
2022/05/03 07:07:11;;;;;;;;;;;16.40;66.30;;;;;;6177995;23;19975;-80
2022/05/03 07:09:38;;;;;;;;;;;16.50;66.50;;;;;;6155089;23;19925;-78
2022/05/03 07:12:06;;;;;;;;;;;16.60;65.70;;;;;;6124710;23;19924;-78
2022/05/03 07:14:33;;;;;;;;;;;16.60;66.60;;;;;;6148544;23;19920;-79
2022/05/03 07:17:00;;;;;;;;;;;16.70;66.50;;;;;;6175313;23;19932;-79
2022/05/03 07:24:58;;;;;;;;;;;16.90;65.00;;;;;;6153171;23;19928;-78
2022/05/03 07:27:24;;;;;;;;;;;16.90;66.30;;;;;;6158215;23;19925;-79
2022/05/03 07:29:51;;;;;;;;;;;16.90;65.70;;;;;;6148844;23;19920;-80
2022/05/03 07:32:19;;;;;;;;;;;16.90;66.30;;;;;;6152416;23;19999;-79
2022/05/03 07:34:46;;;;;;;;;;;16.90;65.60;;;;;;6155603;23;20301;-78
2022/05/03 07:37:13;;;;;;;;;;;17.00;65.10;;;;;;6176215;23;19920;-78
2022/05/03 07:39:40;;;;;;;;;;;17.00;65.30;;;;;;6155382;23;19924;-80
2022/05/03 07:42:07;;;;;;;;;;;17.10;64.90;;;;;;6152482;23;19925;-78
2022/05/03 07:44:34;;;;;;;;;;;17.10;64.50;;;;;;6131436;23;19945;-78
2022/05/03 07:47:00;;;;;;;;;;;17.20;63.50;;;;;;6174088;23;19920;-78
2022/05/03 07:49:27;;;;;;;;;;;17.20;63.80;;;;;;6124665;23;20338;-79
2022/05/03 07:51:54;;;;;;;;;;;17.20;62.50;;;;;;6147058;23;19928;-79
2022/05/03 07:54:21;;;;;;;;;;;17.20;62.80;;;;;;6148253;23;19921;-78
2022/05/03 07:56:52;;;;;;;;;;;17.20;63.40;;;;;;6175458;23;19921;-80
2022/05/03 07:59:23;;;;;;;;;;;17.20;63.30;;;;;;6148934;23;19921;-79
2022/05/03 08:01:49;;;;;;;;;;;17.30;63.20;;;;;;6148300;23;20000;-79
2022/05/03 08:04:16;;;;;;;;;;;17.20;62.80;;;;;;6154144;23;20234;-79
2022/05/03 08:06:43;;;;;;;;;;;17.20;63.00;;;;;;6154595;23;20360;-79
2022/05/03 08:09:10;;;;;;;;;;;17.20;63.40;;;;;;6127207;23;20338;-79
2022/05/03 08:11:41;;;;;;;;;;;17.30;63.70;;;;;;6152735;23;20346;-78
2022/05/03 08:14:08;;;;;;;;;;;17.30;65.30;;;;;;6153688;23;19921;-79
2022/05/03 08:16:35;;;;;;;;;;;17.20;64.30;;;;;;6152786;23;20412;-78
2022/05/03 08:19:02;;;;;;;;;;;17.20;64.60;;;;;;6152609;23;20000;-79
2022/05/03 08:21:29;;;;;;;;;;;17.20;64.10;;;;;;6132923;23;19925;-78
2022/05/03 08:23:56;;;;;;;;;;;17.20;62.40;;;;;;6176243;23;19971;-79
2022/05/03 08:26:22;;;;;;;;;;;17.10;63.00;;;;;;6136617;23;19920;-78
2022/05/03 08:28:49;;;;;;;;;;;17.10;64.90;;;;;;6172700;23;20334;-79
2022/05/03 08:31:16;;;;;;;;;;;17.10;64.70;;;;;;6153688;23;19921;-80
2022/05/03 08:33:44;;;;;;;;;;;17.00;64.70;;;;;;6129864;23;19925;-80
2022/05/03 08:36:11;;;;;;;;;;;17.00;67.60;;;;;;6152060;23;19921;-80
2022/05/03 08:44:08;;;;;;;;;;;16.80;68.20;;;;;;6123555;23;19976;-79
2022/05/03 08:46:36;;;;;;;;;;;16.70;69.20;;;;;;6123159;23;19924;-79
2022/05/03 08:49:04;;;;;;;;;;;16.60;69.10;;;;;;6143262;23;19920;-79
2022/05/03 08:51:32;;;;;;;;;;;16.50;70.10;;;;;;6166176;23;19929;-78
2022/05/03 08:53:59;;;;;;;;;;;16.50;70.80;;;;;;6154391;23;19987;-79
2022/05/03 08:56:26;;;;;;;;;;;16.40;73.10;;;;;;6152380;23;19925;-79
2022/05/03 08:58:54;;;;;;;;;;;16.40;74.30;;;;;;6130539;23;20262;-79
2022/05/03 09:01:21;;;;;;;;;;;16.40;75.40;;;;;;6172793;23;19924;-80
2022/05/03 09:03:48;;;;;;;;;;;16.30;76.70;;;;;;6147288;23;19944;-80
2022/05/03 09:06:15;;;;;;;;;;;16.30;76.30;;;;;;6147660;23;19932;-81
2022/05/03 09:08:42;;;;;;;;;;;16.30;77.00;;;;;;6148238;23;19920;-80
2022/05/03 09:11:12;;;;;;;;;;;16.20;77.00;;;;;;6146737;23;19920;-80
2022/05/03 09:13:39;;;;;;;;;;;16.20;78.50;;;;;;6150178;23;19920;-80
2022/05/03 09:16:10;;;;;;;;;;;16.10;77.70;;;;;;6148768;23;20302;-80
2022/05/03 09:18:37;;;;;;;;;;;16.10;80.50;;;;;;6138799;23;20338;-81
2022/05/03 09:24:01;;;;;;;;;;;16.00;78.00;;;;;;6154464;23;19944;-80
2022/05/03 09:26:28;;;;;;;;;;;16.00;77.70;;;;;;6151997;23;20242;-80
2022/05/03 09:29:00;;;;;;;;;;;15.90;78.90;;;;;;6130295;23;19932;-83
2022/05/03 09:31:29;;;;;;;;;;;15.90;78.60;;;;;;6126264;23;20011;-82
2022/05/03 09:33:56;;;;;;;;;;;15.90;79.60;;;;;;6152780;23;20389;-83
2022/05/03 09:36:23;;;;;;;;;;;15.90;80.50;;;;;;6127873;23;19921;-82
2022/05/03 09:39:20;;;;;;;;;;;15.90;79.30;;;;;;6151953;23;19963;-82
2022/05/03 09:42:06;;;;;;;;;;;15.90;79.10;;;;;;6131984;23;19931;-80
2022/05/03 09:44:36;;;;;;;;;;;16.00;78.90;;;;;;6164336;23;19921;-82
2022/05/03 09:47:10;;;;;;;;;;;15.90;80.50;;;;;;6174696;23;19924;-80
2022/05/03 09:49:39;;;;;;;;;;;15.80;83.70;;;;;;6135311;23;19921;-82
2022/05/03 09:52:06;;;;;;;;;;;15.60;83.00;;;;;;6148018;23;19932;-82
2022/05/03 09:54:46;;;;;;;;;;;15.70;83.10;;;;;;6153308;23;19924;-81
2022/05/03 09:57:23;;;;;;;;;;;15.80;81.30;;;;;;6127523;23;19921;-81
2022/05/03 09:59:50;;;;;;;;;;;15.90;81.30;;;;;;6152249;23;19931;-80
2022/05/03 10:02:20;;;;;;;;;;;16.00;80.70;;;;;;6127136;23;20343;-81
2022/05/03 10:04:48;;;;;;;;;;;16.10;81.20;;;;;;6151795;23;19924;-80
2022/05/03 10:07:15;;;;;;;;;;;16.10;82.40;;;;;;6103027;23;19929;-81
2022/05/03 10:09:42;;;;;;;;;;;16.10;83.00;;;;;;6177656;23;19972;-81
2022/05/03 10:12:13;;;;;;;;;;;16.10;84.00;;;;;;6129717;23;19925;-79
2022/05/03 10:14:44;;;;;;;;;;;16.10;85.80;;;;;;6148467;23;19948;-80
2022/05/03 10:23:25;;;;;;;;;;;15.90;80.20;;;;;;6154044;23;19924;-82
2022/05/03 10:25:59;;;;;;;;;;;15.90;78.60;;;;;;6153427;23;19920;-79
2022/05/03 10:28:45;;;;;;;;;;;15.90;80.10;;;;;;6133950;23;19975;-80
2022/05/03 10:31:13;;;;;;;;;;;15.80;80.10;;;;;;6128461;23;19952;-80
2022/05/03 10:33:41;;;;;;;;;;;15.90;78.60;;;;;;6154227;23;19924;-80
2022/05/03 10:36:26;;;;;;;;;;;15.90;79.40;;;;;;6154841;23;19921;-81
2022/05/03 10:39:02;;;;;;;;;;;15.90;80.80;;;;;;6129686;23;20402;-80
2022/05/03 10:41:29;;;;;;;;;;;16.10;81.10;;;;;;6179047;23;19932;-79
2022/05/03 10:43:56;;;;;;;;;;;16.10;78.50;;;;;;6128902;23;19928;-80
2022/05/03 10:46:23;;;;;;;;;;;16.20;78.80;;;;;;6154212;23;20393;-80
2022/05/03 10:49:22;;;;;;;;;;;16.30;78.30;;;;;;6130868;23;19924;-80
2022/05/03 10:51:50;;;;;;;;;;;16.40;76.70;;;;;;6092586;23;19927;-79
2022/05/03 10:54:17;;;;;;;;;;;16.40;81.20;;;;;;6124746;23;20235;-79
2022/05/03 10:57:02;;;;;;;;;;;16.50;80.00;;;;;;6151303;23;19921;-80
2022/05/03 10:59:45;;;;;;;;;;;16.40;78.10;;;;;;6128272;23;20341;-80
2022/05/03 11:02:13;;;;;;;;;;;16.50;80.00;;;;;;6154183;23;19921;-80
2022/05/03 11:04:58;;;;;;;;;;;16.60;80.60;;;;;;6128589;23;20327;-81
2022/05/03 11:07:25;;;;;;;;;;;16.70;79.00;;;;;;6128974;23;19924;-81
2022/05/03 11:09:52;;;;;;;;;;;16.70;79.10;;;;;;6129423;23;19971;-79
2022/05/03 11:12:40;;;;;;;;;;;16.90;78.60;;;;;;6153304;23;20345;-79
2022/05/03 11:15:06;;;;;;;;;;;17.00;76.60;;;;;;6151740;23;19920;-80
2022/05/03 11:17:40;;;;;;;;;;;17.20;75.30;;;;;;6154214;23;19928;-79
2022/05/03 11:20:07;;;;;;;;;;;17.30;73.90;;;;;;6152997;23;20230;-80
2022/05/03 11:22:35;;;;;;;;;;;17.30;74.60;;;;;;6153393;23;19983;-79
2022/05/03 11:25:04;;;;;;;;;;;17.30;75.70;;;;;;6153913;23;19921;-79
2022/05/03 11:27:31;;;;;;;;;;;17.40;73.10;;;;;;6153526;23;20253;-79
2022/05/03 11:29:59;;;;;;;;;;;17.30;75.90;;;;;;6154376;23;20334;-80
2022/05/03 11:32:31;;;;;;;;;;;17.40;74.30;;;;;;6152294;23;19924;-82
2022/05/03 11:35:05;;;;;;;;;;;17.50;71.20;;;;;;6177515;23;19929;-80
2022/05/03 11:37:33;;;;;;;;;;;17.40;70.80;;;;;;6153189;23;19921;-79
2022/05/03 11:40:03;;;;;;;;;;;17.40;70.90;;;;;;6128638;23;20270;-80
2022/05/03 11:42:41;;;;;;;;;;;17.30;72.80;;;;;;6153486;23;19924;-79
2022/05/03 11:45:09;;;;;;;;;;;17.20;75.90;;;;;;6128149;23;19924;-80
2022/05/03 11:47:41;;;;;;;;;;;17.20;73.30;;;;;;6153365;23;19925;-80
2022/05/03 11:50:09;;;;;;;;;;;17.20;72.70;;;;;;6128296;23;19921;-81
2022/05/03 11:58:07;;;;;;;;;;;17.30;73.50;;;;;;6153789;23;19928;-78
2022/05/03 12:00:44;;;;;;;;;;;17.30;71.80;;;;;;6133450;23;19921;-79
2022/05/03 12:03:13;;;;;;;;;;;17.30;72.60;;;;;;6126104;23;20280;-78
2022/05/03 12:05:55;;;;;;;;;;;17.30;73.10;;;;;;6153264;23;19924;-78
2022/05/03 12:08:23;;;;;;;;;;;17.30;72.20;;;;;;6154072;23;20381;-78
2022/05/03 12:10:51;;;;;;;;;;;17.30;70.50;;;;;;6152680;23;20342;-78
2022/05/03 12:13:23;;;;;;;;;;;17.30;70.80;;;;;;6127338;23;19935;-80
2022/05/03 12:15:50;;;;;;;;;;;17.30;70.70;;;;;;6153303;23;19995;-79
2022/05/03 12:18:19;;;;;;;;;;;17.40;70.40;;;;;;6127441;23;19925;-79
2022/05/03 12:20:51;;;;;;;;;;;17.40;69.60;;;;;;6177423;23;19941;-78
2022/05/03 12:23:19;;;;;;;;;;;17.50;68.10;;;;;;6127184;23;19925;-78
2022/05/03 12:25:47;;;;;;;;;;;17.60;68.20;;;;;;6152603;23;20413;-79
2022/05/03 12:28:15;;;;;;;;;;;17.70;68.60;;;;;;6127224;23;19921;-78
2022/05/03 12:30:42;;;;;;;;;;;17.70;68.30;;;;;;6152876;23;19920;-79
2022/05/03 12:33:12;;;;;;;;;;;17.80;67.60;;;;;;6127307;23;19921;-79
2022/05/03 12:35:40;;;;;;;;;;;17.70;68.30;;;;;;6152906;23;20257;-78
2022/05/03 12:38:10;;;;;;;;;;;17.90;66.30;;;;;;6127060;23;19925;-79
2022/05/03 12:40:42;;;;;;;;;;;17.90;65.80;;;;;;6152261;23;19983;-77
2022/05/03 12:43:11;;;;;;;;;;;17.90;64.60;;;;;;6153561;23;20250;-79
2022/05/03 12:45:39;;;;;;;;;;;18.10;64.80;;;;;;6153008;23;19992;-78
2022/05/03 12:48:06;;;;;;;;;;;18.20;64.40;;;;;;6151748;23;19927;-79
2022/05/03 12:50:33;;;;;;;;;;;18.20;63.90;;;;;;6152814;23;19924;-80
2022/05/03 12:53:00;;;;;;;;;;;18.20;62.30;;;;;;6126085;23;19925;-80
2022/05/03 12:55:28;;;;;;;;;;;18.40;62.10;;;;;;6152749;23;19931;-80
2022/05/03 13:00:40;;;;;;;;;;;18.40;61.50;;;;;;6155702;23;19928;-79
2022/05/03 13:03:10;;;;;;;;;;;18.60;61.20;;;;;;6153560;23;19921;-79
2022/05/03 13:05:38;;;;;;;;;;;18.70;60.10;;;;;;6127246;23;20325;-79
2022/05/03 13:08:05;;;;;;;;;;;18.70;59.40;;;;;;6128296;23;20361;-78
2022/05/03 13:10:33;;;;;;;;;;;18.70;59.90;;;;;;6153348;23;19924;-78
2022/05/03 13:13:03;;;;;;;;;;;18.80;59.80;;;;;;6152602;23;19948;-80
2022/05/03 13:15:30;;;;;;;;;;;18.80;59.40;;;;;;6129046;23;20393;-79
2022/05/03 13:17:58;;;;;;;;;;;18.80;59.40;;;;;;6153825;23;19939;-79
2022/05/03 13:20:26;;;;;;;;;;;18.90;57.40;;;;;;6128871;23;19921;-78
2022/05/03 13:23:01;;;;;;;;;;;18.90;58.20;;;;;;6153432;23;20302;-78
2022/05/03 13:25:28;;;;;;;;;;;19.00;58.30;;;;;;6153194;23;19921;-79
2022/05/03 13:27:55;;;;;;;;;;;19.10;59.30;;;;;;6131717;23;19925;-78
2022/05/03 13:30:23;;;;;;;;;;;19.20;56.00;;;;;;6123770;23;19921;-79
2022/05/03 13:32:49;;;;;;;;;;;19.30;55.30;;;;;;6153069;23;19921;-80
2022/05/03 13:40:28;;;;;;;;;;;19.30;56.50;;;;;;6153936;23;19995;-79
2022/05/03 13:40:49;;;;;;;;;;;19.40;54.80;;;;;;6153002;23;20346;-78
2022/05/03 13:43:15;;;;;;;;;;;19.40;54.50;;;;;;6133455;23;19925;-78
2022/05/03 13:45:45;;;;;;;;;;;19.50;53.40;;;;;;6176463;23;20294;-80
2022/05/03 13:48:24;;;;;;;;;;;19.40;54.40;;;;;;6138981;23;19972;-78
2022/05/03 13:50:50;;;;;;;;;;;19.40;54.10;;;;;;6175378;23;19920;-79
2022/05/03 13:53:17;;;;;;;;;;;19.40;54.80;;;;;;6154630;23;19925;-80
2022/05/03 13:55:44;;;;;;;;;;;19.40;54.40;;;;;;6129553;23;19944;-79
2022/05/03 13:58:11;;;;;;;;;;;19.40;53.00;;;;;;6155661;23;19924;-79
2022/05/03 14:00:38;;;;;;;;;;;19.40;54.10;;;;;;6153550;23;19924;-80
2022/05/03 14:03:07;;;;;;;;;;;19.50;54.50;;;;;;6129378;23;19975;-79
2022/05/03 14:05:35;;;;;;;;;;;19.50;54.20;;;;;;6154182;23;19944;-80
2022/05/03 14:08:01;;;;;;;;;;;19.60;52.30;;;;;;6129949;23;19929;-78
2022/05/03 14:10:30;;;;;;;;;;;19.50;54.40;;;;;;6154109;23;19924;-80
2022/05/03 14:12:57;;;;;;;;;;;19.60;54.30;;;;;;6129027;23;19924;-79
2022/05/03 14:15:24;;;;;;;;;;;19.70;51.90;;;;;;6155665;23;19920;-79
2022/05/03 14:17:50;;;;;;;;;;;19.70;51.70;;;;;;6129346;23;19980;-79
2022/05/03 14:20:18;;;;;;;;;;;19.70;51.90;;;;;;6154145;23;19987;-80
2022/05/03 14:22:45;;;;;;;;;;;19.50;52.00;;;;;;6154889;23;19920;-79
2022/05/03 14:25:12;;;;;;;;;;;19.60;51.40;;;;;;6179216;23;20342;-79
2022/05/03 14:27:39;;;;;;;;;;;19.60;53.10;;;;;;6130638;23;19924;-79
2022/05/03 14:30:07;;;;;;;;;;;19.70;51.30;;;;;;6172601;23;19920;-80
2022/05/03 14:32:34;;;;;;;;;;;19.70;51.60;;;;;;6117753;23;19925;-79
2022/05/03 14:35:01;;;;;;;;;;;19.80;52.10;;;;;;6176944;23;19979;-80
2022/05/03 14:37:30;;;;;;;;;;;19.70;51.60;;;;;;6152340;23;19921;-79
2022/05/03 14:39:57;;;;;;;;;;;19.70;52.10;;;;;;6127385;23;20342;-78
2022/05/03 14:42:25;;;;;;;;;;;19.80;52.40;;;;;;6152959;23;19959;-79
2022/05/03 14:44:52;;;;;;;;;;;19.90;52.30;;;;;;6128045;23;19925;-78
2022/05/03 14:47:20;;;;;;;;;;;19.90;51.40;;;;;;6177641;23;19952;-78
2022/05/03 14:49:46;;;;;;;;;;;19.90;51.20;;;;;;6128851;23;19921;-78
2022/05/03 14:52:15;;;;;;;;;;;19.90;50.10;;;;;;6153280;23;19927;-80
2022/05/03 14:54:42;;;;;;;;;;;20.00;51.80;;;;;;6130005;23;20257;-80
2022/05/03 15:02:54;;;;;;;;;;;20.00;51.70;;;;;;6125744;23;19992;-78
2022/05/03 15:05:22;;;;;;;;;;;20.20;50.30;;;;;;6166056;23;19920;-79
2022/05/03 15:07:49;;;;;;;;;;;20.20;50.00;;;;;;6153444;23;20338;-79
2022/05/03 15:10:17;;;;;;;;;;;20.30;48.80;;;;;;6154575;23;20357;-79
2022/05/03 15:12:44;;;;;;;;;;;20.30;46.40;;;;;;6153332;23;20331;-79
2022/05/03 15:15:16;;;;;;;;;;;20.10;44.80;;;;;;6128060;23;20335;-79
2022/05/03 15:17:44;;;;;;;;;;;20.20;46.10;;;;;;6153719;23;19928;-80